createdAt,value
2023-05-12T00:01:06.657Z,94807.97
2023-05-12T00:03:33.868Z,94809.75
2023-05-12T00:06:01.392Z,94813.16
2023-05-12T00:08:28.141Z,94813.56
2023-05-12T00:10:54.803Z,94807.25
2023-05-12T00:13:21.567Z,94806.81
2023-05-12T00:15:48.214Z,94801.91
2023-05-12T00:18:14.924Z,94802.53
2023-05-12T00:20:41.602Z,94798.97
2023-05-12T00:23:08.394Z,94790.47
2023-05-12T00:25:35.079Z,94788.81
2023-05-12T00:28:01.743Z,94778.97
2023-05-12T00:30:28.334Z,94773.81
2023-05-12T00:32:55.036Z,94778.16
2023-05-12T00:35:21.733Z,94774.06
2023-05-12T00:37:48.361Z,94770.75
2023-05-12T00:40:15.001Z,94771.72
2023-05-12T00:42:41.603Z,94773.75
2023-05-12T00:45:08.807Z,94761.34
2023-05-12T00:47:35.672Z,94778.25
2023-05-12T00:50:04.163Z,94767.22
2023-05-12T00:52:31.072Z,94770.63
2023-05-12T00:55:00.233Z,94764.78
2023-05-12T00:57:27.064Z,94765.06
2023-05-12T00:59:54.896Z,94768.03
2023-05-12T01:02:22.457Z,94770.56
2023-05-12T01:04:49.838Z,94767.81
2023-05-12T01:07:21.777Z,94766.13
2023-05-12T01:09:58.684Z,94767.41
2023-05-12T01:12:27.270Z,94761.28
2023-05-12T01:14:56.161Z,94769.25
2023-05-12T01:17:31.469Z,94766.34
2023-05-12T01:20:01.527Z,94757.66
2023-05-12T01:22:33.262Z,94752.88
2023-05-12T01:25:03.961Z,94758.81
2023-05-12T01:27:33.029Z,94754.69
2023-05-12T01:30:02.833Z,94750.22
2023-05-12T01:32:29.491Z,94752.50
2023-05-12T01:34:56.598Z,94753.31
2023-05-12T01:37:23.225Z,94751.88
2023-05-12T01:39:49.843Z,94756.84
2023-05-12T01:42:16.461Z,94754.38
2023-05-12T01:44:43.084Z,94763.56
2023-05-12T01:47:09.782Z,94763.06
2023-05-12T01:49:36.853Z,94759.63
2023-05-12T01:52:04.003Z,94746.06
2023-05-12T01:54:30.663Z,94741.28
2023-05-12T01:56:57.305Z,94750.31
2023-05-12T01:59:23.963Z,94763.84
2023-05-12T02:01:50.639Z,94758.00
2023-05-12T02:04:17.465Z,94754.13
2023-05-12T02:06:44.087Z,94753.72
2023-05-12T02:09:10.752Z,94757.69
2023-05-12T02:11:37.491Z,94748.25
2023-05-12T02:14:04.233Z,94751.59
2023-05-12T02:16:30.911Z,94749.00
2023-05-12T02:18:57.855Z,94751.88
2023-05-12T02:21:24.532Z,94743.22
2023-05-12T02:23:51.183Z,94745.47
2023-05-12T02:26:17.804Z,94738.13
2023-05-12T02:28:44.461Z,94746.16
2023-05-12T02:31:11.074Z,94747.31
2023-05-12T02:33:37.747Z,94745.19
2023-05-12T02:36:04.645Z,94748.34
2023-05-12T02:38:31.390Z,94747.84
2023-05-12T02:40:58.276Z,94743.66
2023-05-12T02:43:24.895Z,94739.72
2023-05-12T02:45:51.492Z,94738.41
2023-05-12T02:48:18.376Z,94736.34
2023-05-12T02:50:45.105Z,94739.63
2023-05-12T02:53:11.776Z,94735.06
2023-05-12T02:55:38.937Z,94737.06
2023-05-12T02:58:05.808Z,94737.19
2023-05-12T03:00:32.424Z,94732.41
2023-05-12T03:02:59.098Z,94736.66
2023-05-12T03:05:25.806Z,94735.44
2023-05-12T03:07:52.509Z,94734.28
2023-05-12T03:10:19.320Z,94725.22
2023-05-12T03:12:46.233Z,94732.16
2023-05-12T03:15:12.850Z,94730.50
2023-05-12T03:17:39.526Z,94728.16
2023-05-12T03:20:07.073Z,94734.09
2023-05-12T03:22:34.049Z,94738.75
2023-05-12T03:25:00.655Z,94732.00
2023-05-12T03:27:27.298Z,94725.44
2023-05-12T03:29:54.049Z,94725.84
2023-05-12T03:32:21.223Z,94728.47
2023-05-12T03:34:47.948Z,94725.84
2023-05-12T03:37:14.585Z,94720.47
2023-05-12T03:39:41.208Z,94721.03
2023-05-12T03:42:07.927Z,94721.34
2023-05-12T03:44:34.632Z,94717.69
2023-05-12T03:47:01.390Z,94717.91
2023-05-12T03:49:28.184Z,94721.78
2023-05-12T03:51:54.783Z,94715.69
2023-05-12T03:54:21.376Z,94716.94
2023-05-12T03:56:47.999Z,94714.09
2023-05-12T03:59:16.184Z,94716.16
2023-05-12T04:01:42.886Z,94717.28
2023-05-12T04:04:10.036Z,94717.03
2023-05-12T04:06:36.889Z,94713.03
2023-05-12T04:09:03.733Z,94720.34
2023-05-12T04:11:30.326Z,94719.34
2023-05-12T04:13:56.946Z,94724.13
2023-05-12T04:16:23.669Z,94711.81
2023-05-12T04:18:50.351Z,94722.94
2023-05-12T04:21:16.965Z,94718.88
2023-05-12T04:23:43.570Z,94717.84
2023-05-12T04:26:10.196Z,94719.03
2023-05-12T04:28:36.825Z,94713.84
2023-05-12T04:31:04.328Z,94717.31
2023-05-12T04:33:31.202Z,94719.13
2023-05-12T04:35:58.123Z,94720.13
2023-05-12T04:38:24.884Z,94712.66
2023-05-12T04:40:51.535Z,94719.03
2023-05-12T04:45:50.086Z,94729.81
2023-05-12T04:48:16.688Z,94729.72
2023-05-12T04:50:43.341Z,94727.94
2023-05-12T04:53:11.300Z,94735.03
2023-05-12T04:55:38.134Z,94724.72
2023-05-12T04:58:04.765Z,94732.84
2023-05-12T05:00:31.413Z,94727.91
2023-05-12T05:02:58.072Z,94735.97
2023-05-12T05:05:24.730Z,94734.22
2023-05-12T05:07:51.421Z,94741.06
2023-05-12T05:10:18.113Z,94734.53
2023-05-12T05:12:44.717Z,94741.72
2023-05-12T05:15:11.418Z,94733.81
2023-05-12T05:17:38.125Z,94739.38
2023-05-12T05:20:09.740Z,94734.00
2023-05-12T05:22:38.559Z,94741.00
2023-05-12T05:25:05.708Z,94734.28
2023-05-12T05:27:32.326Z,94739.63
2023-05-12T05:29:58.992Z,94731.72
2023-05-12T05:32:25.921Z,94737.69
2023-05-12T05:34:52.579Z,94739.75
2023-05-12T05:37:19.245Z,94735.09
2023-05-12T05:39:45.873Z,94744.38
2023-05-12T05:42:12.606Z,94749.84
2023-05-12T05:44:39.302Z,94750.56
2023-05-12T05:47:06.001Z,94753.19
2023-05-12T05:49:32.698Z,94745.09
2023-05-12T05:51:59.299Z,94744.09
2023-05-12T05:54:26.206Z,94739.00
2023-05-12T05:56:52.841Z,94742.97
2023-05-12T05:59:19.480Z,94754.41
2023-05-12T06:01:46.245Z,94756.94
2023-05-12T06:04:13.036Z,94757.75
2023-05-12T06:06:39.747Z,94752.00
2023-05-12T06:09:06.372Z,94744.19
2023-05-12T06:11:33.259Z,94745.09
2023-05-12T06:14:00.004Z,94744.72
2023-05-12T06:16:26.746Z,94739.72
2023-05-12T06:18:53.640Z,94753.56
2023-05-12T06:21:20.342Z,94745.28
2023-05-12T06:23:47.008Z,94749.75
2023-05-12T06:26:13.671Z,94756.91
2023-05-12T06:28:40.266Z,94751.03
2023-05-12T06:31:07.669Z,94756.66
2023-05-12T06:33:34.700Z,94756.19
2023-05-12T06:36:01.426Z,94742.31
2023-05-12T06:38:28.103Z,94749.38
2023-05-12T06:40:54.824Z,94748.31
2023-05-12T06:43:21.634Z,94750.09
2023-05-12T06:45:48.324Z,94755.19
2023-05-12T06:48:14.939Z,94758.75
2023-05-12T06:50:41.563Z,94757.47
2023-05-12T06:53:08.251Z,94756.19
2023-05-12T06:55:34.894Z,94762.94
2023-05-12T06:58:01.548Z,94774.59
2023-05-12T07:00:28.177Z,94766.34
2023-05-12T07:02:54.865Z,94770.72
2023-05-12T07:05:21.771Z,94767.06
2023-05-12T07:07:49.232Z,94776.13
2023-05-12T07:10:15.976Z,94769.03
2023-05-12T07:12:43.126Z,94761.72
2023-05-12T07:15:10.289Z,94774.38
2023-05-12T07:17:37.267Z,94770.63
2023-05-12T07:20:04.376Z,94781.22
2023-05-12T07:22:31.091Z,94767.94
2023-05-12T07:24:58.021Z,94771.75
2023-05-12T07:27:25.076Z,94774.91
2023-05-12T07:29:52.035Z,94768.81
2023-05-12T07:32:18.665Z,94761.28
2023-05-12T07:34:45.331Z,94763.78
2023-05-12T07:37:11.997Z,94758.81
2023-05-12T07:39:38.597Z,94756.41
2023-05-12T07:42:05.605Z,94754.88
2023-05-12T07:44:32.232Z,94770.88
2023-05-12T07:46:58.966Z,94748.56
2023-05-12T07:49:25.758Z,94746.97
2023-05-12T07:51:52.376Z,94753.47
2023-05-12T07:54:21.628Z,94746.97
2023-05-12T08:04:42.084Z,94748.72
2023-05-12T08:07:10.516Z,94760.22
2023-05-12T08:09:37.164Z,94751.13
2023-05-12T08:12:04.101Z,94759.13
2023-05-12T08:14:30.733Z,94750.88
2023-05-12T08:16:57.472Z,94747.34
2023-05-12T08:19:24.213Z,94738.41
2023-05-12T08:21:50.966Z,94739.31
2023-05-12T08:24:17.589Z,94737.66
2023-05-12T08:49:36.437Z,94753.06
2023-05-12T08:52:03.243Z,94744.63
2023-05-12T08:54:30.253Z,94734.91
2023-05-12T08:59:27.287Z,94735.66
2023-05-12T09:01:55.274Z,94732.38
2023-05-12T09:04:21.983Z,94728.03
2023-05-12T09:06:49.060Z,94727.00
2023-05-12T09:09:17.604Z,94732.63
2023-05-12T09:11:44.239Z,94726.69
2023-05-12T09:14:18.988Z,94730.03
2023-05-12T09:16:50.252Z,94733.06
2023-05-12T09:19:21.290Z,94737.03
2023-05-12T09:21:48.869Z,94733.13
2023-05-12T09:24:18.402Z,94734.16
2023-05-12T09:26:48.765Z,94732.00
2023-05-12T09:29:27.946Z,94741.53
2023-05-12T09:31:59.325Z,94732.94
2023-05-12T09:34:31.443Z,94731.59
2023-05-12T09:37:00.719Z,94740.69
2023-05-12T09:39:27.959Z,94734.22
2023-05-12T09:41:58.027Z,94730.19
2023-05-12T09:44:26.092Z,94718.00
2023-05-12T09:46:52.988Z,94723.91
2023-05-12T09:49:24.342Z,94730.94
2023-05-12T09:51:58.160Z,94734.00
2023-05-12T09:54:29.955Z,94719.69
2023-05-12T09:57:02.697Z,94732.84
2023-05-12T09:59:34.615Z,94718.69
2023-05-12T10:02:03.444Z,94723.00
2023-05-12T10:04:36.302Z,94722.28
2023-05-12T10:07:05.462Z,94718.19
2023-05-12T10:09:34.493Z,94716.94
2023-05-12T10:12:04.232Z,94706.38
2023-05-12T10:14:32.106Z,94704.03
2023-05-12T10:17:02.025Z,94711.97
2023-05-12T10:19:30.703Z,94704.78
2023-05-12T10:21:58.113Z,94705.66
2023-05-12T10:24:26.371Z,94701.34
2023-05-12T10:26:56.316Z,94703.81
2023-05-12T10:29:26.990Z,94700.19
2023-05-12T10:31:53.675Z,94712.47
2023-05-12T10:34:20.318Z,94691.00
2023-05-12T10:36:48.641Z,94704.66
2023-05-12T10:39:15.840Z,94702.66
2023-05-12T10:41:42.576Z,94701.84
2023-05-12T10:44:09.301Z,94701.34
2023-05-12T10:46:38.337Z,94697.31
2023-05-12T10:49:10.393Z,94702.13
2023-05-12T10:51:48.300Z,94683.97
2023-05-12T10:54:25.187Z,94683.97
2023-05-12T10:56:53.290Z,94670.13
2023-05-12T10:59:22.666Z,94674.13
2023-05-12T11:01:57.713Z,94667.31
2023-05-12T11:04:41.020Z,94667.06
2023-05-12T11:07:11.466Z,94671.31
2023-05-12T11:09:50.640Z,94675.03
2023-05-12T11:12:26.221Z,94687.00
2023-05-12T11:14:52.934Z,94689.25
2023-05-12T11:17:19.594Z,94688.59
2023-05-12T11:19:48.288Z,94672.47
2023-05-12T11:22:19.004Z,94676.94
2023-05-12T11:24:46.363Z,94663.75
2023-05-12T11:27:15.647Z,94664.91
2023-05-12T11:29:43.716Z,94663.34
2023-05-12T11:32:11.785Z,94662.84
2023-05-12T11:34:38.899Z,94655.72
2023-05-12T11:37:06.167Z,94658.91
2023-05-12T11:39:33.544Z,94651.72
2023-05-12T11:42:12.099Z,94652.25
2023-05-12T11:44:48.447Z,94655.16
2023-05-12T11:47:16.398Z,94656.63
2023-05-12T11:49:47.027Z,94657.88
2023-05-12T11:52:14.392Z,94654.75
2023-05-12T11:54:50.572Z,94658.44
2023-05-12T11:57:31.920Z,94642.47
2023-05-12T12:00:04.759Z,94657.34
2023-05-12T12:02:31.472Z,94645.19
2023-05-12T12:04:58.280Z,94645.25
2023-05-12T12:07:35.957Z,94643.66
2023-05-12T12:10:17.045Z,94643.66
2023-05-12T12:12:44.944Z,94654.56
2023-05-12T12:15:12.922Z,94651.59
2023-05-12T12:17:40.362Z,94633.59
2023-05-12T12:20:08.439Z,94633.06
2023-05-12T12:22:35.344Z,94639.72
2023-05-12T12:25:03.188Z,94640.28
2023-05-12T12:27:30.088Z,94639.72
2023-05-12T12:29:57.137Z,94642.66
2023-05-12T12:32:24.683Z,94646.41
2023-05-12T12:34:52.372Z,94636.78
2023-05-12T12:37:19.259Z,94639.97
2023-05-12T12:39:45.961Z,94636.19
2023-05-12T12:42:12.597Z,94642.31
2023-05-12T12:44:39.403Z,94636.38
2023-05-12T12:47:06.030Z,94645.19
2023-05-12T12:49:32.696Z,94650.44
2023-05-12T12:51:59.406Z,94634.03
2023-05-12T12:54:27.959Z,94643.69
2023-05-12T12:56:54.827Z,94637.53
2023-05-12T12:59:21.427Z,94630.34
2023-05-12T13:01:48.179Z,94635.91
2023-05-12T13:04:15.136Z,94635.69
2023-05-12T13:06:41.742Z,94632.44
2023-05-12T13:09:08.353Z,94630.53
2023-05-12T13:11:34.981Z,94635.91
2023-05-12T13:14:01.617Z,94634.81
2023-05-12T13:16:31.018Z,94635.94
2023-05-12T13:18:57.756Z,94638.06
2023-05-12T13:21:24.558Z,94636.19
2023-05-12T13:23:51.189Z,94631.69
2023-05-12T13:26:17.816Z,94628.72
2023-05-12T13:28:44.498Z,94625.06
2023-05-12T13:31:11.238Z,94623.53
2023-05-12T13:33:37.824Z,94617.84
2023-05-12T13:36:04.688Z,94621.78
2023-05-12T13:38:31.270Z,94624.72
2023-05-12T13:40:57.969Z,94619.13
2023-05-12T13:43:24.616Z,94618.94
2023-05-12T13:45:51.228Z,94620.81
2023-05-12T13:48:17.872Z,94616.56
2023-05-12T13:50:44.495Z,94619.78
2023-05-12T13:53:11.122Z,94618.69
2023-05-12T13:55:39.858Z,94613.66
2023-05-12T13:58:07.397Z,94618.69
2023-05-12T14:00:34.086Z,94616.28
2023-05-12T14:03:00.852Z,94616.81
2023-05-12T14:05:27.656Z,94613.09
2023-05-12T14:07:54.300Z,94611.97
2023-05-12T14:10:20.942Z,94609.28
2023-05-12T14:12:50.103Z,94601.59
2023-05-12T14:15:24.082Z,94603.88
2023-05-12T14:17:55.974Z,94597.28
2023-05-12T14:20:22.705Z,94592.06
2023-05-12T14:22:49.349Z,94591.44
2023-05-12T14:25:15.994Z,94588.69
2023-05-12T14:27:42.631Z,94585.75
2023-05-12T14:30:09.734Z,94594.97
2023-05-12T14:32:36.522Z,94592.13
2023-05-12T14:35:03.315Z,94589.75
2023-05-12T14:37:30.045Z,94595.63
2023-05-12T14:39:56.726Z,94595.09
2023-05-12T14:42:23.546Z,94585.72
2023-05-12T14:44:50.149Z,94607.63
2023-05-12T14:47:16.805Z,94598.03
2023-05-12T14:49:45.925Z,94595.75
2023-05-12T14:52:12.548Z,94598.38
2023-05-12T14:54:39.196Z,94585.41
2023-05-12T14:57:07.955Z,94593.94
2023-05-12T14:59:34.793Z,94596.56
2023-05-12T15:02:04.690Z,94593.63
2023-05-12T15:04:31.457Z,94601.03
2023-05-12T15:06:58.131Z,94597.34
2023-05-12T15:09:27.486Z,94593.38
2023-05-12T15:11:56.394Z,94594.97
2023-05-12T15:16:50.742Z,94598.69
2023-05-12T15:19:17.598Z,94599.50
2023-05-12T15:21:44.330Z,94596.06
2023-05-12T15:24:10.914Z,94592.84
2023-05-12T15:26:39.724Z,94594.16
2023-05-12T15:29:07.679Z,94592.03
2023-05-12T15:31:35.233Z,94619.50
2023-05-12T15:34:02.395Z,94596.03
2023-05-12T15:36:29.033Z,94591.53
2023-05-12T15:38:55.635Z,94593.63
2023-05-12T15:41:22.289Z,94597.94
2023-05-12T15:43:48.954Z,94589.91
2023-05-12T15:46:15.588Z,94590.72
2023-05-12T15:48:42.766Z,94588.88
2023-05-12T15:51:09.462Z,94589.09
2023-05-12T15:53:36.066Z,94600.59
2023-05-12T15:56:04.575Z,94597.13
2023-05-12T15:58:32.058Z,94600.56
2023-05-12T16:00:59.311Z,94593.41
2023-05-12T16:03:26.201Z,94610.66
2023-05-12T16:05:53.283Z,94604.00
2023-05-12T16:08:19.976Z,94613.59
2023-05-12T16:10:46.571Z,94603.75
2023-05-12T16:13:13.272Z,94609.06
2023-05-12T16:15:39.885Z,94602.13
2023-05-12T16:18:09.144Z,94605.63
2023-05-12T16:20:37.662Z,94599.47
2023-05-12T16:23:04.292Z,94608.59
2023-05-12T16:25:31.076Z,94609.91
2023-05-12T16:27:57.753Z,94605.13
2023-05-12T16:30:24.523Z,94607.47
2023-05-12T16:32:51.278Z,94621.03
2023-05-12T16:35:18.074Z,94610.66
2023-05-12T16:37:44.788Z,94611.25
2023-05-12T16:40:11.562Z,94605.13
2023-05-12T16:42:38.196Z,94617.56
2023-05-12T16:45:05.212Z,94606.94
2023-05-12T16:47:32.028Z,94615.94
2023-05-12T16:49:58.745Z,94623.91
2023-05-12T16:52:26.177Z,94619.59
2023-05-12T16:54:53.198Z,94617.53
2023-05-12T16:57:20.064Z,94617.00
2023-05-12T16:59:46.941Z,94622.34
2023-05-12T17:02:13.865Z,94620.50
2023-05-12T17:04:40.572Z,94627.41
2023-05-12T17:07:07.339Z,94619.16
2023-05-12T17:09:34.282Z,94620.28
2023-05-12T17:12:01.209Z,94622.16
2023-05-12T17:14:27.859Z,94610.72
2023-05-12T17:16:54.529Z,94620.81
2023-05-12T17:19:21.233Z,94623.22
2023-05-12T17:21:48.205Z,94630.88
2023-05-12T17:24:14.895Z,94624.03
2023-05-12T17:26:41.542Z,94628.00
2023-05-12T17:29:08.305Z,94642.38
2023-05-12T17:31:35.051Z,94629.56
2023-05-12T17:34:01.951Z,94637.84
2023-05-12T17:36:28.705Z,94639.41
2023-05-12T17:38:56.603Z,94645.25
2023-05-12T17:41:23.371Z,94642.84
2023-05-12T17:43:50.055Z,94638.28
2023-05-12T17:46:16.795Z,94649.97
2023-05-12T17:48:43.522Z,94647.31
2023-05-12T17:51:10.162Z,94644.94
2023-05-12T17:53:36.829Z,94645.78
2023-05-12T17:56:03.566Z,94649.97
2023-05-12T17:58:30.355Z,94648.94
2023-05-12T18:00:57.118Z,94647.84
2023-05-12T18:03:24.032Z,94657.41
2023-05-12T18:05:52.773Z,94659.00
2023-05-12T18:08:19.522Z,94660.03
2023-05-12T18:10:48.244Z,94658.38
2023-05-12T18:13:14.989Z,94664.53
2023-05-12T18:15:44.505Z,94670.09
2023-05-12T18:18:11.284Z,94668.16
2023-05-12T18:20:38.169Z,94671.91
2023-05-12T18:23:04.979Z,94667.25
2023-05-12T18:25:33.115Z,94676.28
2023-05-12T18:28:00.061Z,94669.00
2023-05-12T18:30:26.749Z,94673.34
2023-05-12T18:32:53.756Z,94673.91
2023-05-12T18:35:20.648Z,94677.47
2023-05-12T18:37:50.256Z,94680.31
2023-05-12T18:40:16.910Z,94679.13
2023-05-12T18:42:46.271Z,94674.53
2023-05-12T18:45:16.038Z,94681.13
2023-05-12T18:47:42.681Z,94674.81
2023-05-12T18:50:09.766Z,94686.41
2023-05-12T18:52:39.573Z,94684.00
2023-05-12T18:55:06.721Z,94679.94
2023-05-12T18:57:36.684Z,94676.28
2023-05-12T19:00:06.787Z,94676.78
2023-05-12T19:02:33.483Z,94668.88
2023-05-12T19:05:00.534Z,94675.44
2023-05-12T19:07:27.187Z,94670.34
2023-05-12T19:09:53.820Z,94688.47
2023-05-12T19:12:20.408Z,94685.00
2023-05-12T19:14:47.001Z,94697.97
2023-05-12T19:17:13.636Z,94682.75
2023-05-12T19:19:40.273Z,94684.56
2023-05-12T19:22:06.987Z,94690.88
2023-05-12T19:24:34.008Z,94696.06
2023-05-12T19:27:00.669Z,94692.88
2023-05-12T19:29:27.264Z,94697.44
2023-05-12T19:31:53.922Z,94705.09
2023-05-12T19:34:20.648Z,94714.28
2023-05-12T19:36:47.592Z,94718.41
2023-05-12T19:39:14.492Z,94717.06
2023-05-12T19:41:41.147Z,94728.13
2023-05-12T19:44:07.872Z,94730.38
2023-05-12T19:46:34.629Z,94725.03
2023-05-12T19:49:01.294Z,94730.38
2023-05-12T19:51:28.576Z,94736.44
2023-05-12T19:53:55.249Z,94742.41
2023-05-12T19:56:22.400Z,94743.78
2023-05-12T19:58:49.058Z,94747.38
2023-05-12T20:01:15.840Z,94744.63
2023-05-12T20:03:42.531Z,94749.94
2023-05-12T20:06:09.199Z,94753.06
2023-05-12T20:08:35.813Z,94747.28
2023-05-12T20:11:02.473Z,94752.78
2023-05-12T20:13:29.126Z,94750.50
2023-05-12T20:15:55.798Z,94757.91
2023-05-12T20:18:22.623Z,94771.50
2023-05-12T20:20:49.573Z,94767.06
2023-05-12T20:23:16.568Z,94774.00
2023-05-12T20:25:43.214Z,94763.38
2023-05-12T20:28:09.828Z,94765.16
2023-05-12T20:30:36.426Z,94761.69
2023-05-12T20:33:03.187Z,94771.94
2023-05-12T20:35:29.805Z,94777.72
2023-05-12T20:37:56.441Z,94764.03
2023-05-12T20:40:23.045Z,94765.00
2023-05-12T20:42:49.817Z,94771.31
2023-05-12T20:45:16.550Z,94766.97
2023-05-12T20:47:43.197Z,94772.28
2023-05-12T20:50:10.427Z,94770.69
2023-05-12T20:52:38.293Z,94776.63
2023-05-12T20:55:06.025Z,94780.47
2023-05-12T20:57:32.903Z,94780.44
2023-05-12T20:59:59.511Z,94782.28
2023-05-12T21:02:27.622Z,94777.94
2023-05-12T21:04:54.698Z,94778.75
2023-05-12T21:07:21.441Z,94782.22
2023-05-12T21:09:48.113Z,94774.50
2023-05-12T21:12:15.385Z,94784.34
2023-05-12T21:14:43.936Z,94788.63
2023-05-12T21:17:11.505Z,94782.28
2023-05-12T21:19:39.654Z,94773.28
2023-05-12T21:22:07.790Z,94767.97
2023-05-12T21:24:34.447Z,94778.56
2023-05-12T21:27:06.167Z,94767.19
2023-05-12T21:29:34.106Z,94772.16
2023-05-12T21:32:01.844Z,94777.13
2023-05-12T21:34:28.695Z,94774.91
2023-05-12T21:36:55.502Z,94771.03
2023-05-12T21:39:22.456Z,94796.25
2023-05-12T21:41:49.207Z,94784.53
2023-05-12T21:44:16.149Z,94785.41
2023-05-12T21:46:43.448Z,94786.34
2023-05-12T21:49:11.666Z,94788.06
2023-05-12T21:51:38.699Z,94788.22
2023-05-12T21:54:05.555Z,94777.81
2023-05-12T21:56:32.185Z,94778.28
2023-05-12T21:58:58.852Z,94791.59
2023-05-12T22:01:25.646Z,94785.81
2023-05-12T22:03:55.420Z,94795.28
2023-05-12T22:06:22.216Z,94784.88
2023-05-12T22:08:49.150Z,94777.88
2023-05-12T22:11:16.095Z,94785.19
2023-05-12T22:13:42.902Z,94786.31
2023-05-12T22:16:09.541Z,94775.28
2023-05-12T22:18:38.506Z,94789.84
2023-05-12T22:21:05.196Z,94790.06
2023-05-12T22:23:31.883Z,94792.97
2023-05-12T22:25:58.481Z,94790.38
2023-05-12T22:28:25.104Z,94783.09
2023-05-12T22:30:51.719Z,94800.13
2023-05-12T22:33:18.778Z,94787.41
2023-05-12T22:35:45.466Z,94794.16
2023-05-12T22:38:12.070Z,94785.16
2023-05-12T22:40:38.742Z,94795.50
2023-05-12T22:43:05.443Z,94803.44
2023-05-12T22:45:32.304Z,94789.97
2023-05-12T22:47:59.068Z,94796.06
2023-05-12T22:50:25.737Z,94798.81
2023-05-12T22:52:52.580Z,94804.97
2023-05-12T22:55:19.348Z,94808.16
2023-05-12T22:57:46.035Z,94796.63
2023-05-12T23:00:13.225Z,94799.75
2023-05-12T23:02:39.911Z,94798.63
2023-05-12T23:05:06.913Z,94799.34
2023-05-12T23:07:33.554Z,94803.03
2023-05-12T23:10:00.218Z,94800.47
2023-05-12T23:12:26.917Z,94793.16
2023-05-12T23:14:53.532Z,94790.50
2023-05-12T23:17:20.251Z,94797.56
2023-05-12T23:19:46.860Z,94805.41
2023-05-12T23:22:13.485Z,94797.94
2023-05-12T23:24:40.151Z,94802.09
2023-05-12T23:27:06.889Z,94811.19
2023-05-12T23:29:33.548Z,94811.53
2023-05-12T23:32:03.251Z,94800.72
2023-05-12T23:34:29.936Z,94802.69
2023-05-12T23:36:56.572Z,94811.53
2023-05-12T23:39:23.206Z,94810.53
2023-05-12T23:41:49.982Z,94798.91
2023-05-12T23:44:16.622Z,94805.22
2023-05-12T23:46:43.454Z,94803.16
2023-05-12T23:49:10.198Z,94818.28
2023-05-12T23:51:36.922Z,94802.03
2023-05-12T23:54:03.763Z,94812.63
2023-05-12T23:56:30.508Z,94809.84
2023-05-12T23:58:57.167Z,94808.25
